createdAt,value
2023-02-22T00:00:00.564Z,5.0
2023-02-22T00:01:00.564Z,5.0
2023-02-22T00:02:00.548Z,5.0
2023-02-22T00:03:00.591Z,4.9
2023-02-22T00:04:03.454Z,4.9
2023-02-22T00:05:00.529Z,4.9
2023-02-22T00:06:02.799Z,4.9
2023-02-22T00:07:00.537Z,4.8
2023-02-22T00:08:00.602Z,4.8
2023-02-22T00:09:00.541Z,4.8
2023-02-22T00:10:00.552Z,4.8
2023-02-22T00:11:04.296Z,4.8
2023-02-22T00:12:00.547Z,4.8
2023-02-22T00:13:00.561Z,4.8
2023-02-22T00:14:00.566Z,4.7
2023-02-22T00:15:00.508Z,4.7
2023-02-22T00:16:01.363Z,4.7
2023-02-22T00:17:00.623Z,4.6
2023-02-22T00:18:01.269Z,4.6
2023-02-22T00:19:00.530Z,4.6
2023-02-22T00:20:00.877Z,4.6
2023-02-22T00:21:00.622Z,4.6
2023-02-22T00:22:00.546Z,4.5
2023-02-22T00:23:00.570Z,4.5
2023-02-22T00:24:00.555Z,4.5
2023-02-22T00:25:00.525Z,4.5
2023-02-22T00:26:00.577Z,4.4
2023-02-22T00:27:00.662Z,4.4
2023-02-22T00:28:01.487Z,4.4
2023-02-22T00:29:00.661Z,4.4
2023-02-22T00:30:00.522Z,4.4
2023-02-22T00:31:00.542Z,4.4
2023-02-22T00:32:00.711Z,4.3
2023-02-22T00:33:00.963Z,4.3
2023-02-22T00:34:00.559Z,4.3
2023-02-22T00:35:00.671Z,4.3
2023-02-22T00:36:00.529Z,4.3
2023-02-22T00:37:00.541Z,4.3
2023-02-22T00:38:01.616Z,4.2
2023-02-22T00:39:00.594Z,4.2
2023-02-22T00:40:00.659Z,4.2
2023-02-22T00:41:00.557Z,4.2
2023-02-22T00:42:00.775Z,4.2
2023-02-22T00:43:03.105Z,4.1
2023-02-22T00:44:00.571Z,4.1
2023-02-22T00:45:00.649Z,4.1
2023-02-22T00:46:01.371Z,4.1
2023-02-22T00:47:00.526Z,4.1
2023-02-22T00:48:01.938Z,4.1
2023-02-22T00:49:00.593Z,4.0
2023-02-22T00:50:00.762Z,4.0
2023-02-22T00:51:00.553Z,4.0
2023-02-22T00:52:00.629Z,4.0
2023-02-22T00:53:02.500Z,4.0
2023-02-22T00:54:00.749Z,4.0
2023-02-22T00:55:00.748Z,3.9
2023-02-22T00:56:00.726Z,3.9
2023-02-22T00:57:01.262Z,3.9
2023-02-22T00:58:01.445Z,3.9
2023-02-22T00:59:00.762Z,3.9
2023-02-22T01:00:04.120Z,3.8
2023-02-22T01:01:00.555Z,3.8
2023-02-22T01:02:00.623Z,3.8
2023-02-22T01:03:00.731Z,3.8
2023-02-22T01:04:00.536Z,3.8
2023-02-22T01:05:00.517Z,3.8
2023-02-22T01:06:00.548Z,3.8
2023-02-22T01:07:00.551Z,3.8
2023-02-22T01:08:01.502Z,3.8
2023-02-22T01:09:01.709Z,3.8
2023-02-22T01:10:01.234Z,3.8
2023-02-22T01:11:00.583Z,3.8
2023-02-22T01:12:00.950Z,3.8
2023-02-22T01:13:01.197Z,3.8
2023-02-22T01:14:00.648Z,3.8
2023-02-22T01:15:02.776Z,3.8
2023-02-22T01:16:00.513Z,3.8
2023-02-22T01:17:00.523Z,3.8
2023-02-22T01:18:00.555Z,3.8
2023-02-22T01:19:00.530Z,3.8
2023-02-22T01:20:00.916Z,3.9
2023-02-22T01:21:01.325Z,3.9
2023-02-22T01:22:00.531Z,3.9
2023-02-22T01:23:02.349Z,3.9
2023-02-22T01:24:00.552Z,3.8
2023-02-22T01:25:00.579Z,3.8
2023-02-22T01:26:01.088Z,3.8
2023-02-22T01:27:00.522Z,3.8
2023-02-22T01:28:01.987Z,3.8
2023-02-22T01:29:00.531Z,3.8
2023-02-22T01:30:01.872Z,3.8
2023-02-22T01:31:00.623Z,3.8
2023-02-22T01:32:00.669Z,3.8
2023-02-22T01:33:02.444Z,3.8
2023-02-22T01:34:00.536Z,3.8
2023-02-22T01:35:01.166Z,3.8
2023-02-22T01:36:00.523Z,3.8
2023-02-22T01:37:00.523Z,3.7
2023-02-22T01:38:00.842Z,3.7
2023-02-22T01:39:00.631Z,3.7
2023-02-22T01:40:00.798Z,3.7
2023-02-22T01:41:00.576Z,3.7
2023-02-22T01:42:00.683Z,3.7
2023-02-22T01:43:04.628Z,3.7
2023-02-22T01:44:20.443Z,3.7
2023-02-22T01:45:20.436Z,3.7
2023-02-22T01:46:11.516Z,3.8
2023-02-22T01:47:02.676Z,3.8
2023-02-22T01:48:04.899Z,3.8
2023-02-22T01:49:04.216Z,3.8
2023-02-22T01:50:01.126Z,3.8
2023-02-22T01:51:07.018Z,3.7
2023-02-22T01:52:03.708Z,3.7
2023-02-22T01:53:01.551Z,3.7
2023-02-22T01:54:05.587Z,3.7
2023-02-22T01:55:00.620Z,3.7
2023-02-22T01:56:02.511Z,3.7
2023-02-22T01:57:06.123Z,3.7
2023-02-22T01:58:02.406Z,3.7
2023-02-22T01:59:05.029Z,3.7
2023-02-22T02:00:08.972Z,3.6
2023-02-22T02:01:00.606Z,3.6
2023-02-22T02:02:01.145Z,3.6
2023-02-22T02:03:07.054Z,3.6
2023-02-22T02:04:14.360Z,3.6
2023-02-22T02:05:00.966Z,3.6
2023-02-22T02:06:03.875Z,3.6
2023-02-22T02:07:04.232Z,3.6
2023-02-22T02:08:11.500Z,3.6
2023-02-22T02:09:11.417Z,3.6
2023-02-22T02:10:04.289Z,3.6
2023-02-22T02:11:02.763Z,3.6
2023-02-22T02:12:01.508Z,3.6
2023-02-22T02:13:01.035Z,3.5
2023-02-22T02:14:00.548Z,3.5
2023-02-22T02:15:20.425Z,3.5
2023-02-22T02:16:00.568Z,3.5
2023-02-22T02:17:00.622Z,3.5
2023-02-22T02:18:03.616Z,3.5
2023-02-22T02:19:00.720Z,3.5
2023-02-22T02:20:02.540Z,3.5
2023-02-22T02:21:10.537Z,3.5
2023-02-22T02:22:14.635Z,3.5
2023-02-22T02:23:09.295Z,3.5
2023-02-22T02:24:20.437Z,3.4
2023-02-22T02:25:13.768Z,3.4
2023-02-22T02:26:20.428Z,3.4
2023-02-22T02:27:12.853Z,3.4
2023-02-22T02:28:20.463Z,3.4
2023-02-22T02:29:13.677Z,3.4
2023-02-22T02:30:20.524Z,3.4
2023-02-22T02:31:20.472Z,3.4
2023-02-22T02:32:20.647Z,3.4
2023-02-22T02:33:10.623Z,3.4
2023-02-22T02:34:06.710Z,3.4
2023-02-22T02:35:11.413Z,3.4
2023-02-22T02:36:09.080Z,3.4
2023-02-22T02:37:18.416Z,3.4
2023-02-22T02:38:10.671Z,3.4
2023-02-22T02:39:10.506Z,3.4
2023-02-22T02:40:10.757Z,3.4
2023-02-22T02:41:10.509Z,3.4
2023-02-22T02:42:05.094Z,3.4
2023-02-22T02:43:11.198Z,3.4
2023-02-22T02:44:08.387Z,3.5
2023-02-22T02:45:07.391Z,3.5
2023-02-22T02:46:08.912Z,3.5
2023-02-22T02:47:04.644Z,3.5
2023-02-22T02:48:04.732Z,3.5
2023-02-22T02:49:06.523Z,3.5
2023-02-22T02:50:06.791Z,3.5
2023-02-22T02:51:04.290Z,3.5
2023-02-22T02:52:03.043Z,3.5
2023-02-22T02:53:05.980Z,3.5
2023-02-22T02:54:03.058Z,3.5
2023-02-22T02:55:04.152Z,3.5
2023-02-22T02:56:00.754Z,3.5
2023-02-22T02:57:01.750Z,3.5
2023-02-22T02:58:00.588Z,3.5
2023-02-22T02:59:00.552Z,3.5
2023-02-22T03:00:00.521Z,3.5
2023-02-22T03:01:02.728Z,3.5
2023-02-22T03:02:13.752Z,3.5
2023-02-22T03:03:20.444Z,3.5
2023-02-22T03:04:14.173Z,3.6
2023-02-22T03:05:10.044Z,3.6
2023-02-22T03:06:18.795Z,3.6
2023-02-22T03:07:11.552Z,3.6
2023-02-22T03:08:20.451Z,3.6
2023-02-22T03:09:10.932Z,3.6
2023-02-22T03:10:13.733Z,3.6
2023-02-22T03:11:05.674Z,3.6
2023-02-22T03:12:11.500Z,3.6
2023-02-22T03:13:17.413Z,3.7
2023-02-22T03:14:10.138Z,3.7
2023-02-22T03:15:10.380Z,3.7
2023-02-22T03:16:03.856Z,3.8
2023-02-22T03:17:13.490Z,3.8
2023-02-22T03:18:05.012Z,3.8
2023-02-22T03:19:09.338Z,3.8
2023-02-22T03:20:10.642Z,3.8
2023-02-22T03:21:16.765Z,3.8
2023-02-22T03:22:09.472Z,3.8
2023-02-22T03:23:09.764Z,3.8
2023-02-22T03:24:16.840Z,3.8
2023-02-22T03:25:06.816Z,3.8
2023-02-22T03:26:08.050Z,3.7
2023-02-22T03:27:14.878Z,3.8
2023-02-22T03:28:05.042Z,3.8
2023-02-22T03:29:02.262Z,3.8
2023-02-22T03:30:06.794Z,3.8
2023-02-22T03:31:06.237Z,3.8
2023-02-22T03:32:03.977Z,3.8
2023-02-22T03:33:05.878Z,3.8
2023-02-22T03:34:05.423Z,3.8
2023-02-22T03:35:05.473Z,3.8
2023-02-22T03:36:10.462Z,3.8
2023-02-22T03:37:07.142Z,3.8
2023-02-22T03:38:04.973Z,3.8
2023-02-22T03:39:02.074Z,3.8
2023-02-22T03:40:03.601Z,3.9
2023-02-22T03:41:01.215Z,3.9
2023-02-22T03:42:06.458Z,3.9
2023-02-22T03:43:06.375Z,3.9
2023-02-22T03:44:07.610Z,3.9
2023-02-22T03:45:03.166Z,3.9
2023-02-22T03:46:01.731Z,3.9
2023-02-22T03:47:07.281Z,3.9
2023-02-22T03:48:07.594Z,3.9
2023-02-22T03:49:08.461Z,3.9
2023-02-22T03:50:08.243Z,4.0
2023-02-22T03:51:01.162Z,4.0
2023-02-22T03:52:02.507Z,4.0
2023-02-22T03:53:01.119Z,4.0
2023-02-22T03:54:01.398Z,4.0
2023-02-22T03:55:01.813Z,4.0
2023-02-22T03:56:03.857Z,4.0
2023-02-22T03:57:16.876Z,4.0
2023-02-22T03:58:05.791Z,4.0
2023-02-22T03:59:05.247Z,4.0
2023-02-22T04:00:01.775Z,4.0
2023-02-22T04:01:00.816Z,4.0
2023-02-22T04:02:00.549Z,4.0
2023-02-22T04:03:01.799Z,4.0
2023-02-22T04:04:00.953Z,4.0
2023-02-22T04:05:00.902Z,4.0
2023-02-22T04:06:00.580Z,4.0
2023-02-22T04:07:00.665Z,4.0
2023-02-22T04:08:00.814Z,4.0
2023-02-22T04:09:00.548Z,4.0
2023-02-22T04:10:00.712Z,4.1
2023-02-22T04:11:00.758Z,4.1
2023-02-22T04:12:00.532Z,4.1
2023-02-22T04:13:00.547Z,4.1
2023-02-22T04:14:00.765Z,4.1
2023-02-22T04:15:00.590Z,4.1
2023-02-22T04:16:00.657Z,4.1
2023-02-22T04:17:00.568Z,4.1
2023-02-22T04:18:00.963Z,4.1
2023-02-22T04:19:00.636Z,4.1
2023-02-22T04:20:00.551Z,4.1
2023-02-22T04:21:00.529Z,4.1
2023-02-22T04:22:00.796Z,4.1
2023-02-22T04:23:00.595Z,4.1
2023-02-22T04:24:00.537Z,4.1
2023-02-22T04:25:00.543Z,4.1
2023-02-22T04:26:00.522Z,4.1
2023-02-22T04:27:00.559Z,4.1
2023-02-22T04:28:00.809Z,4.1
2023-02-22T04:29:00.540Z,4.1
2023-02-22T04:30:00.558Z,4.1
2023-02-22T04:31:00.622Z,4.1
2023-02-22T04:32:00.585Z,4.1
2023-02-22T04:33:00.559Z,4.1
2023-02-22T04:34:01.243Z,4.1
2023-02-22T04:35:00.572Z,4.1
2023-02-22T04:36:00.956Z,4.1
2023-02-22T04:37:00.573Z,4.1
2023-02-22T04:38:00.509Z,4.1
2023-02-22T04:39:00.912Z,4.1
2023-02-22T04:40:01.607Z,4.1
2023-02-22T04:41:00.614Z,4.1
2023-02-22T04:42:00.721Z,4.1
2023-02-22T04:43:00.571Z,4.1
2023-02-22T04:44:00.829Z,4.1
2023-02-22T04:45:00.624Z,4.2
2023-02-22T04:46:00.544Z,4.2
2023-02-22T04:47:00.575Z,4.2
2023-02-22T04:48:00.595Z,4.2
2023-02-22T04:49:00.630Z,4.2
2023-02-22T04:50:00.537Z,4.2
2023-02-22T04:51:00.530Z,4.3
2023-02-22T04:52:00.654Z,4.3
2023-02-22T04:53:00.819Z,4.3
2023-02-22T04:54:00.539Z,4.3
2023-02-22T04:55:00.779Z,4.3
2023-02-22T04:56:00.597Z,4.3
2023-02-22T04:57:00.538Z,4.3
2023-02-22T04:58:01.249Z,4.3
2023-02-22T04:59:00.553Z,4.4
2023-02-22T05:00:00.743Z,4.4
2023-02-22T05:01:00.651Z,4.4
2023-02-22T05:02:00.898Z,4.4
2023-02-22T05:03:00.547Z,4.4
2023-02-22T05:04:02.029Z,4.4
2023-02-22T05:05:00.592Z,4.4
2023-02-22T05:06:00.538Z,4.4
2023-02-22T05:07:00.532Z,4.3
2023-02-22T05:08:00.566Z,4.3
2023-02-22T05:09:00.570Z,4.3
2023-02-22T05:10:00.561Z,4.3
2023-02-22T05:11:00.541Z,4.3
2023-02-22T05:12:00.537Z,4.3
2023-02-22T05:13:01.294Z,4.3
2023-02-22T05:14:00.533Z,4.3
2023-02-22T05:15:00.599Z,4.3
2023-02-22T05:16:00.663Z,4.2
2023-02-22T05:17:01.538Z,4.2
2023-02-22T05:18:00.906Z,4.2
2023-02-22T05:19:00.544Z,4.2
2023-02-22T05:20:01.131Z,4.2
2023-02-22T05:21:00.540Z,4.2
2023-02-22T05:22:00.557Z,4.2
2023-02-22T05:23:02.187Z,4.2
2023-02-22T05:24:00.576Z,4.2
2023-02-22T05:25:00.593Z,4.1
2023-02-22T05:26:00.702Z,4.1
2023-02-22T05:27:00.679Z,4.1
2023-02-22T05:28:06.434Z,4.1
2023-02-22T05:29:00.525Z,4.1
2023-02-22T05:30:00.537Z,4.1
2023-02-22T05:31:00.697Z,4.0
2023-02-22T05:32:00.722Z,4.0
2023-02-22T05:33:00.820Z,4.0
2023-02-22T05:34:00.512Z,4.0
2023-02-22T05:35:00.516Z,4.0
2023-02-22T05:36:01.121Z,4.0
2023-02-22T05:37:00.526Z,4.0
2023-02-22T05:38:00.581Z,4.0
2023-02-22T05:39:00.629Z,4.1
2023-02-22T05:40:00.575Z,4.1
2023-02-22T05:41:00.528Z,4.1
2023-02-22T05:42:00.524Z,4.1
2023-02-22T05:43:01.085Z,4.1
2023-02-22T05:44:00.568Z,4.2
2023-02-22T05:45:00.568Z,4.2
2023-02-22T05:46:00.582Z,4.2
2023-02-22T05:47:00.525Z,4.2
2023-02-22T05:48:00.611Z,4.2
2023-02-22T05:49:00.606Z,4.2
2023-02-22T05:50:00.514Z,4.2
2023-02-22T05:51:00.530Z,4.2
2023-02-22T05:52:00.556Z,4.2
2023-02-22T05:53:00.906Z,4.2
2023-02-22T05:54:00.548Z,4.2
2023-02-22T05:55:00.571Z,4.2
2023-02-22T05:56:00.931Z,4.2
2023-02-22T05:57:00.545Z,4.2
2023-02-22T05:58:00.539Z,4.2
2023-02-22T05:59:00.642Z,4.2
2023-02-22T06:00:01.022Z,4.3
2023-02-22T06:01:02.955Z,4.3
2023-02-22T06:02:00.596Z,4.3
2023-02-22T06:03:03.995Z,4.4
2023-02-22T06:04:00.555Z,4.4
2023-02-22T06:05:00.567Z,4.4
2023-02-22T06:06:00.541Z,4.4
2023-02-22T06:07:00.730Z,4.4
2023-02-22T06:08:01.691Z,4.4
2023-02-22T06:09:00.526Z,4.4
2023-02-22T06:10:00.534Z,4.4
2023-02-22T06:11:00.524Z,4.4
2023-02-22T06:12:00.619Z,4.4
2023-02-22T06:13:01.711Z,4.4
2023-02-22T06:14:00.596Z,4.4
2023-02-22T06:15:00.549Z,4.4
2023-02-22T06:16:01.420Z,4.4
2023-02-22T06:17:00.748Z,4.4
2023-02-22T06:18:00.889Z,4.4
2023-02-22T06:19:00.539Z,4.4
2023-02-22T06:20:00.604Z,4.4
2023-02-22T06:21:00.547Z,4.4
2023-02-22T06:22:00.542Z,4.4
2023-02-22T06:23:00.574Z,4.4
2023-02-22T06:24:01.760Z,4.4
2023-02-22T06:25:04.809Z,4.4
2023-02-22T06:26:00.577Z,4.4
2023-02-22T06:27:01.264Z,4.4
2023-02-22T06:28:00.584Z,4.4
2023-02-22T06:29:00.552Z,4.4
2023-02-22T06:30:01.312Z,4.4
2023-02-22T06:31:00.515Z,4.4
2023-02-22T06:32:00.724Z,4.4
2023-02-22T06:33:00.545Z,4.4
2023-02-22T06:34:00.635Z,4.4
2023-02-22T06:35:00.524Z,4.5
2023-02-22T06:36:00.573Z,4.5
2023-02-22T06:37:00.554Z,4.6
2023-02-22T06:38:00.636Z,4.6
2023-02-22T06:39:00.552Z,4.7
2023-02-22T06:40:04.969Z,4.7
2023-02-22T06:41:00.563Z,4.8
2023-02-22T06:42:00.657Z,4.8
2023-02-22T06:43:00.530Z,4.9
2023-02-22T06:44:00.535Z,4.9
2023-02-22T06:45:00.523Z,5.0
2023-02-22T06:46:00.633Z,5.0
2023-02-22T06:47:00.838Z,5.1
2023-02-22T06:48:00.533Z,5.1
2023-02-22T06:49:00.545Z,5.1
2023-02-22T06:50:00.550Z,5.1
2023-02-22T06:51:00.519Z,5.2
2023-02-22T06:52:02.882Z,5.2
2023-02-22T06:53:00.579Z,5.2
2023-02-22T06:54:00.592Z,5.2
2023-02-22T06:55:00.517Z,5.2
2023-02-22T06:56:00.685Z,5.3
2023-02-22T06:57:00.549Z,5.5
2023-02-22T06:58:02.338Z,5.5
2023-02-22T06:59:02.626Z,5.4
2023-02-22T07:00:00.536Z,5.5
2023-02-22T07:01:00.605Z,5.5
2023-02-22T07:02:00.540Z,5.5
2023-02-22T07:03:02.954Z,5.3
2023-02-22T07:04:00.883Z,5.3
2023-02-22T07:05:00.507Z,5.4
2023-02-22T07:06:00.851Z,5.4
2023-02-22T07:07:00.533Z,5.4
2023-02-22T07:08:03.428Z,5.4
2023-02-22T07:09:00.842Z,5.4
2023-02-22T07:10:00.550Z,5.3
2023-02-22T07:11:00.583Z,5.3
2023-02-22T07:12:00.510Z,5.2
2023-02-22T07:13:01.443Z,5.2
2023-02-22T07:14:00.544Z,5.2
2023-02-22T07:15:00.947Z,5.3
2023-02-22T07:16:00.646Z,5.3
2023-02-22T07:17:00.521Z,5.3
2023-02-22T07:18:00.572Z,5.4
2023-02-22T07:19:01.042Z,5.4
2023-02-22T07:20:00.523Z,5.5
2023-02-22T07:21:00.513Z,5.5
2023-02-22T07:22:00.519Z,5.5
2023-02-22T07:23:00.857Z,5.6
2023-02-22T07:24:00.737Z,5.6
2023-02-22T07:25:00.590Z,5.6
2023-02-22T07:26:01.909Z,5.7
2023-02-22T07:27:00.750Z,5.7
2023-02-22T07:28:00.546Z,5.8
2023-02-22T07:29:00.527Z,5.8
2023-02-22T07:30:00.555Z,5.8
2023-02-22T07:31:00.563Z,5.9
2023-02-22T07:32:01.033Z,5.9
2023-02-22T07:33:02.690Z,5.8
2023-02-22T07:34:00.534Z,5.8
2023-02-22T07:35:00.511Z,5.9
2023-02-22T07:36:00.549Z,5.9
2023-02-22T07:37:00.597Z,5.9
2023-02-22T07:38:00.533Z,5.9
2023-02-22T07:39:00.538Z,6.0
2023-02-22T07:40:00.512Z,6.0
2023-02-22T07:41:00.561Z,6.0
2023-02-22T07:42:00.531Z,6.0
2023-02-22T07:43:05.279Z,6.0
2023-02-22T07:44:00.514Z,6.1
2023-02-22T07:45:00.527Z,6.1
2023-02-22T07:46:00.722Z,6.1
2023-02-22T07:47:00.517Z,6.2
2023-02-22T07:48:02.775Z,6.2
2023-02-22T07:49:00.540Z,6.2
2023-02-22T07:50:00.518Z,6.2
2023-02-22T07:51:00.675Z,6.2
2023-02-22T07:52:00.513Z,6.2
2023-02-22T07:53:03.587Z,6.2
2023-02-22T07:54:00.530Z,6.3
2023-02-22T07:55:00.557Z,6.3
2023-02-22T07:56:02.555Z,6.2
2023-02-22T07:57:01.364Z,6.2
2023-02-22T07:58:03.970Z,6.3
2023-02-22T07:59:00.573Z,6.3
2023-02-22T08:00:00.551Z,6.3
2023-02-22T08:01:00.637Z,6.4
2023-02-22T08:02:00.565Z,6.4
2023-02-22T08:03:03.024Z,6.4
2023-02-22T08:04:00.545Z,6.5
2023-02-22T08:05:00.614Z,6.5
2023-02-22T08:06:01.467Z,6.5
2023-02-22T08:07:00.532Z,6.6
2023-02-22T08:08:00.935Z,6.6
2023-02-22T08:09:00.555Z,6.6
2023-02-22T08:10:00.544Z,6.6
2023-02-22T08:11:00.732Z,6.6
2023-02-22T08:12:00.544Z,6.6
2023-02-22T08:13:01.295Z,6.6
2023-02-22T08:14:00.509Z,6.7
2023-02-22T08:15:01.046Z,6.7
2023-02-22T08:16:00.556Z,6.7
2023-02-22T08:17:00.566Z,6.8
2023-02-22T08:18:01.973Z,6.8
2023-02-22T08:19:00.528Z,6.8
2023-02-22T08:20:00.579Z,6.8
2023-02-22T08:21:00.527Z,6.9
2023-02-22T08:22:00.539Z,6.8
2023-02-22T08:23:00.855Z,6.8
2023-02-22T08:24:00.570Z,6.8
2023-02-22T08:25:00.536Z,6.8
2023-02-22T08:26:05.230Z,6.9
2023-02-22T08:27:00.515Z,6.9
2023-02-22T08:28:03.567Z,6.9
2023-02-22T08:29:00.680Z,7.0
2023-02-22T08:30:00.556Z,7.0
2023-02-22T08:31:00.606Z,7.0
2023-02-22T08:32:01.255Z,6.9
2023-02-22T08:33:01.922Z,7.0
2023-02-22T08:34:00.547Z,7.0
2023-02-22T08:35:02.181Z,7.0
2023-02-22T08:36:00.545Z,7.0
2023-02-22T08:37:00.547Z,7.1
2023-02-22T08:38:03.472Z,7.1
2023-02-22T08:39:00.554Z,7.1
2023-02-22T08:40:00.615Z,7.2
2023-02-22T08:41:00.560Z,7.2
2023-02-22T08:42:00.612Z,7.2
2023-02-22T08:43:01.093Z,7.2
2023-02-22T08:44:00.511Z,7.1
2023-02-22T08:45:00.530Z,7.1
2023-02-22T08:46:00.594Z,6.9
2023-02-22T08:47:00.978Z,7.0
2023-02-22T08:48:00.558Z,7.3
2023-02-22T08:49:00.585Z,7.5
2023-02-22T08:50:01.133Z,7.5
2023-02-22T08:51:00.611Z,7.6
2023-02-22T08:52:00.520Z,7.4
2023-02-22T08:53:03.341Z,7.4
2023-02-22T08:54:00.829Z,7.3
2023-02-22T08:55:01.061Z,7.0
2023-02-22T08:56:00.529Z,6.9
2023-02-22T08:57:00.513Z,7.0
2023-02-22T08:58:01.405Z,7.0
2023-02-22T08:59:00.605Z,7.1
2023-02-22T09:00:00.606Z,7.2
2023-02-22T09:01:00.677Z,7.4
2023-02-22T09:02:00.771Z,7.5
2023-02-22T09:03:02.573Z,7.5
2023-02-22T09:04:01.027Z,7.3
2023-02-22T09:05:00.519Z,7.2
2023-02-22T09:06:00.555Z,7.2
2023-02-22T09:07:00.533Z,7.0
2023-02-22T09:08:00.874Z,7.0
2023-02-22T09:09:00.923Z,7.1
2023-02-22T09:10:00.637Z,7.2
2023-02-22T09:11:00.518Z,7.3
2023-02-22T09:12:01.756Z,7.3
2023-02-22T09:13:01.512Z,7.2
2023-02-22T09:14:00.599Z,7.2
2023-02-22T09:15:00.544Z,7.1
2023-02-22T09:16:00.568Z,7.1
2023-02-22T09:17:00.577Z,7.2
2023-02-22T09:18:00.853Z,7.4
2023-02-22T09:19:00.529Z,7.5
2023-02-22T09:20:00.505Z,7.5
2023-02-22T09:21:00.548Z,7.6
2023-02-22T09:22:00.615Z,7.5
2023-02-22T09:23:01.589Z,7.5
2023-02-22T09:24:00.533Z,7.6
2023-02-22T09:25:11.200Z,7.8
2023-02-22T09:26:00.570Z,7.8
2023-02-22T09:27:00.582Z,7.9
2023-02-22T09:28:01.094Z,8.0
2023-02-22T09:29:00.540Z,8.1
2023-02-22T09:30:00.626Z,8.2
2023-02-22T09:31:00.645Z,8.1
2023-02-22T09:32:00.710Z,8.0
2023-02-22T09:33:04.420Z,8.0
2023-02-22T09:34:02.668Z,8.1
2023-02-22T09:35:00.574Z,7.9
2023-02-22T09:36:00.572Z,7.9
2023-02-22T09:37:00.876Z,7.8
2023-02-22T09:38:01.795Z,7.6
2023-02-22T09:39:00.569Z,7.7
2023-02-22T09:40:00.680Z,7.8
2023-02-22T09:41:11.521Z,7.8
2023-02-22T09:42:11.487Z,7.8
2023-02-22T09:43:07.604Z,7.9
2023-02-22T09:44:15.386Z,7.9
2023-02-22T09:45:06.527Z,7.9
2023-02-22T09:46:11.524Z,8.0
2023-02-22T09:47:02.038Z,8.0
2023-02-22T09:48:20.896Z,8.1
2023-02-22T09:49:06.260Z,8.1
2023-02-22T09:50:06.051Z,8.1
2023-02-22T09:51:10.327Z,8.1
2023-02-22T09:52:09.286Z,8.0
2023-02-22T09:53:06.043Z,7.9
2023-02-22T09:54:04.746Z,7.9
2023-02-22T09:55:16.405Z,8.0
2023-02-22T09:56:07.178Z,8.1
2023-02-22T09:57:04.377Z,8.0
2023-02-22T09:58:06.268Z,8.1
2023-02-22T09:59:04.257Z,8.1
2023-02-22T10:00:14.155Z,8.1
2023-02-22T10:01:09.636Z,8.2
2023-02-22T10:02:12.749Z,8.3
2023-02-22T10:03:19.438Z,8.3
2023-02-22T10:04:14.365Z,8.3
2023-02-22T10:05:07.338Z,8.1
2023-02-22T10:06:11.456Z,8.1
2023-02-22T10:07:15.087Z,8.1
2023-02-22T10:08:04.172Z,8.0
2023-02-22T10:09:03.029Z,8.1
2023-02-22T10:10:00.529Z,8.1
2023-02-22T10:11:10.482Z,8.1
2023-02-22T10:12:20.449Z,8.1
2023-02-22T10:13:10.483Z,8.0
2023-02-22T10:14:20.421Z,8.0
2023-02-22T10:15:12.439Z,8.1
2023-02-22T10:16:07.649Z,8.1
2023-02-22T10:17:11.697Z,8.1
2023-02-22T10:18:20.496Z,8.0
2023-02-22T10:19:10.465Z,8.0
2023-02-22T10:20:19.050Z,8.0
2023-02-22T10:21:15.246Z,8.1
2023-02-22T10:22:15.485Z,8.2
2023-02-22T10:23:11.514Z,8.2
2023-02-22T10:24:13.804Z,8.3
2023-02-22T10:25:05.486Z,8.3
2023-02-22T10:26:13.465Z,8.4
2023-02-22T10:27:00.643Z,8.4
2023-02-22T10:28:09.122Z,8.5
2023-02-22T10:29:10.471Z,8.5
2023-02-22T10:30:23.871Z,8.6
2023-02-22T10:31:06.214Z,8.7
2023-02-22T10:32:03.298Z,8.6
2023-02-22T10:33:14.487Z,8.5
2023-02-22T10:34:02.800Z,8.4
2023-02-22T10:35:00.875Z,8.5
2023-02-22T10:36:00.558Z,8.4
2023-02-22T10:37:18.044Z,8.3
2023-02-22T10:38:13.060Z,8.4
2023-02-22T10:39:20.490Z,8.4
2023-02-22T10:40:12.202Z,8.4
2023-02-22T10:41:10.498Z,8.3
2023-02-22T10:42:04.410Z,8.3
2023-02-22T10:43:02.216Z,8.2
2023-02-22T10:44:01.465Z,8.2
2023-02-22T10:45:00.607Z,8.2
2023-02-22T10:46:04.339Z,8.1
2023-02-22T10:47:02.845Z,7.9
2023-02-22T10:48:05.925Z,7.9
2023-02-22T10:49:04.616Z,7.9
2023-02-22T10:50:00.884Z,8.0
2023-02-22T10:51:03.161Z,7.9
2023-02-22T10:52:02.449Z,7.9
2023-02-22T10:53:00.642Z,8.0
2023-02-22T10:54:20.119Z,8.0
2023-02-22T10:55:14.661Z,8.0
2023-02-22T10:56:10.706Z,8.0
2023-02-22T10:57:00.983Z,7.9
2023-02-22T10:58:04.046Z,7.8
2023-02-22T10:59:03.919Z,7.9
2023-02-22T11:00:14.165Z,8.0
2023-02-22T11:01:18.377Z,8.1
2023-02-22T11:02:16.804Z,8.1
2023-02-22T11:03:12.306Z,8.1
2023-02-22T11:04:07.130Z,8.1
2023-02-22T11:05:03.849Z,8.1
2023-02-22T11:06:18.527Z,8.0
2023-02-22T11:07:00.535Z,7.9
2023-02-22T11:08:20.481Z,7.9
2023-02-22T11:09:10.507Z,7.8
2023-02-22T11:10:03.235Z,7.9
2023-02-22T11:11:02.801Z,7.9
2023-02-22T11:12:11.701Z,7.9
2023-02-22T11:13:20.426Z,7.9
2023-02-22T11:14:00.713Z,8.0
2023-02-22T11:15:20.431Z,8.1
2023-02-22T11:16:18.968Z,8.1
2023-02-22T11:17:06.471Z,8.2
2023-02-22T11:18:00.539Z,8.2
2023-02-22T11:19:10.505Z,8.4
2023-02-22T11:20:00.676Z,8.5
2023-02-22T11:21:03.760Z,8.5
2023-02-22T11:22:11.627Z,8.6
2023-02-22T11:23:02.777Z,8.6
2023-02-22T11:24:06.809Z,8.6
2023-02-22T11:25:02.979Z,8.6
2023-02-22T11:26:05.084Z,8.7
2023-02-22T11:27:03.621Z,8.7
2023-02-22T11:28:17.969Z,8.8
2023-02-22T11:29:11.838Z,8.9
2023-02-22T11:30:13.822Z,8.9
2023-02-22T11:31:13.186Z,9.0
2023-02-22T11:32:03.298Z,9.1
2023-02-22T11:33:11.517Z,9.1
2023-02-22T11:34:02.727Z,9.2
2023-02-22T11:35:20.752Z,9.2
2023-02-22T11:36:02.944Z,9.2
2023-02-22T11:37:20.428Z,9.1
2023-02-22T11:38:14.071Z,9.1
2023-02-22T11:39:00.559Z,9.1
2023-02-22T11:40:13.655Z,9.1
2023-02-22T11:41:15.521Z,9.1
2023-02-22T11:42:20.456Z,9.0
2023-02-22T11:43:08.244Z,9.0
2023-02-22T11:44:12.393Z,8.9
2023-02-22T11:45:10.502Z,8.9
2023-02-22T11:46:06.386Z,8.8
2023-02-22T11:47:01.516Z,8.8
2023-02-22T11:48:03.519Z,8.7
2023-02-22T11:49:05.613Z,8.7
2023-02-22T11:50:00.930Z,8.6
2023-02-22T11:51:08.176Z,8.6
2023-02-22T11:52:13.957Z,8.5
2023-02-22T11:53:10.594Z,8.4
2023-02-22T11:54:13.709Z,8.3
2023-02-22T11:55:12.461Z,8.4
2023-02-22T11:56:13.490Z,8.4
2023-02-22T11:57:11.510Z,8.4
2023-02-22T11:58:17.898Z,8.4
2023-02-22T11:59:20.426Z,8.5
2023-02-22T12:00:08.130Z,8.5
2023-02-22T12:01:01.515Z,8.4
2023-02-22T12:02:03.760Z,8.3
2023-02-22T12:03:02.633Z,8.3
2023-02-22T12:04:20.470Z,8.3
2023-02-22T12:05:19.500Z,8.3
2023-02-22T12:06:20.445Z,8.4
2023-02-22T12:07:11.486Z,8.5
2023-02-22T12:08:20.295Z,8.4
2023-02-22T12:09:10.458Z,8.3
2023-02-22T12:10:17.821Z,8.2
2023-02-22T12:11:11.498Z,8.2
2023-02-22T12:12:13.737Z,8.3
2023-02-22T12:13:11.482Z,8.3
2023-02-22T12:14:09.694Z,8.3
2023-02-22T12:15:10.601Z,8.3
2023-02-22T12:16:18.405Z,8.3
2023-02-22T12:17:06.998Z,8.4
2023-02-22T12:18:20.420Z,8.3
2023-02-22T12:19:13.871Z,8.3
2023-02-22T12:20:08.507Z,8.3
2023-02-22T12:21:05.973Z,8.2
2023-02-22T12:22:06.201Z,8.2
2023-02-22T12:23:12.165Z,8.1
2023-02-22T12:24:11.486Z,8.1
2023-02-22T12:25:10.107Z,8.1
2023-02-22T12:26:06.642Z,8.1
2023-02-22T12:27:06.829Z,8.1
2023-02-22T12:28:24.796Z,8.1
2023-02-22T12:29:11.584Z,8.1
2023-02-22T12:30:04.891Z,8.1
2023-02-22T12:31:10.219Z,8.1
2023-02-22T12:32:11.677Z,8.1
2023-02-22T12:33:06.375Z,8.1
2023-02-22T12:34:09.028Z,8.0
2023-02-22T12:35:08.239Z,8.1
2023-02-22T12:36:00.868Z,8.1
2023-02-22T12:37:11.061Z,8.1
2023-02-22T12:38:11.924Z,8.1
2023-02-22T12:39:07.098Z,8.1
2023-02-22T12:40:17.316Z,8.0
2023-02-22T12:41:18.203Z,8.0
2023-02-22T12:42:05.595Z,8.0
2023-02-22T12:43:09.186Z,8.0
2023-02-22T12:44:07.260Z,7.9
2023-02-22T12:45:11.712Z,7.8
2023-02-22T12:46:12.790Z,7.9
2023-02-22T12:47:01.548Z,7.9
2023-02-22T12:48:17.791Z,7.9
2023-02-22T12:49:20.435Z,8.0
2023-02-22T12:50:08.247Z,8.0
2023-02-22T12:51:11.510Z,8.0
2023-02-22T12:52:22.061Z,8.0
2023-02-22T12:53:11.154Z,8.1
2023-02-22T12:54:19.838Z,8.1
2023-02-22T12:55:11.651Z,8.0
2023-02-22T12:56:09.039Z,7.9
2023-02-22T12:57:13.388Z,7.9
2023-02-22T12:58:20.456Z,8.0
2023-02-22T12:59:12.725Z,8.0
2023-02-22T13:00:05.198Z,7.9
2023-02-22T13:01:10.472Z,7.9
2023-02-22T13:02:11.588Z,8.0
2023-02-22T13:03:05.766Z,8.1
2023-02-22T13:04:08.557Z,8.1
2023-02-22T13:05:00.817Z,8.1
2023-02-22T13:06:05.815Z,8.1
2023-02-22T13:07:14.489Z,8.1
2023-02-22T13:08:19.871Z,8.0
2023-02-22T13:09:11.530Z,8.0
2023-02-22T13:10:13.740Z,8.0
2023-02-22T13:11:11.341Z,7.9
2023-02-22T13:12:10.087Z,7.9
2023-02-22T13:13:09.634Z,7.9
2023-02-22T13:14:11.486Z,7.9
2023-02-22T13:15:13.051Z,7.9
2023-02-22T13:16:14.938Z,8.0
2023-02-22T13:17:03.763Z,8.0
2023-02-22T13:18:10.676Z,8.1
2023-02-22T13:19:14.917Z,8.1
2023-02-22T13:20:10.585Z,8.1
2023-02-22T13:21:10.808Z,8.2
2023-02-22T13:22:07.952Z,8.2
2023-02-22T13:23:05.577Z,8.2
2023-02-22T13:24:14.499Z,8.2
2023-02-22T13:25:20.465Z,8.2
2023-02-22T13:26:07.909Z,8.3
2023-02-22T13:27:08.294Z,8.3
2023-02-22T13:28:17.347Z,8.3
2023-02-22T13:29:04.582Z,8.3
2023-02-22T13:30:01.845Z,8.4
2023-02-22T13:31:11.272Z,8.4
2023-02-22T13:32:16.521Z,8.4
2023-02-22T13:33:01.566Z,8.5
2023-02-22T13:34:10.522Z,8.5
2023-02-22T13:35:13.968Z,8.5
2023-02-22T13:36:11.042Z,8.4
2023-02-22T13:37:20.463Z,8.3
2023-02-22T13:38:20.431Z,8.3
2023-02-22T13:39:06.230Z,8.3
2023-02-22T13:40:20.478Z,8.3
2023-02-22T13:41:01.514Z,8.3
2023-02-22T13:42:17.906Z,8.3
2023-02-22T13:43:13.772Z,8.3
2023-02-22T13:44:01.521Z,8.3
2023-02-22T13:45:20.429Z,8.3
2023-02-22T13:46:20.648Z,8.3